createdAt,value
2023-04-28T00:00:03.464Z,4.70
2023-04-28T00:02:32.923Z,4.67
2023-04-28T00:05:01.089Z,4.90
2023-04-28T00:07:29.287Z,4.80
2023-04-28T00:09:57.807Z,5.07
2023-04-28T00:12:25.858Z,4.60
2023-04-28T00:14:54.453Z,4.60
2023-04-28T00:17:22.767Z,4.47
2023-04-28T00:19:53.037Z,4.83
2023-04-28T00:22:20.945Z,4.47
2023-04-28T00:24:48.806Z,4.80
2023-04-28T00:27:16.760Z,4.40
2023-04-28T00:29:44.618Z,4.47
2023-04-28T00:32:13.630Z,4.13
2023-04-28T00:34:41.572Z,3.97
2023-04-28T00:37:10.959Z,4.13
2023-04-28T00:39:38.834Z,4.17
2023-04-28T00:42:06.809Z,4.50
2023-04-28T00:44:34.723Z,4.33
2023-04-28T00:47:02.981Z,4.33
2023-04-28T00:49:31.541Z,4.33
2023-04-28T00:52:03.621Z,4.63
2023-04-28T00:54:34.158Z,4.90
2023-04-28T00:57:04.802Z,4.80
2023-04-28T00:59:33.024Z,4.50
2023-04-28T01:02:01.899Z,4.77
2023-04-28T01:04:31.289Z,4.10
2023-04-28T01:07:01.796Z,4.87
2023-04-28T01:09:29.726Z,4.30
2023-04-28T01:11:59.015Z,4.37
2023-04-28T01:14:26.941Z,5.00
2023-04-28T01:16:55.189Z,4.67
2023-04-28T01:19:24.141Z,4.83
2023-04-28T01:21:52.410Z,4.30
2023-04-28T01:24:21.746Z,4.77
2023-04-28T01:26:49.603Z,4.77
2023-04-28T01:29:17.590Z,4.77
2023-04-28T01:31:45.560Z,4.33
2023-04-28T01:34:13.529Z,4.93
2023-04-28T01:36:41.663Z,5.23
2023-04-28T01:39:09.537Z,4.87
2023-04-28T01:41:38.746Z,4.90
2023-04-28T01:44:07.699Z,4.80
2023-04-28T01:46:36.494Z,4.57
2023-04-28T01:49:04.721Z,4.90
2023-04-28T01:51:32.781Z,4.97
2023-04-28T01:54:00.909Z,4.87
2023-04-28T01:56:28.784Z,5.57
2023-04-28T01:58:58.146Z,4.77
2023-04-28T02:01:26.081Z,4.60
2023-04-28T02:03:55.366Z,5.43
2023-04-28T02:06:23.568Z,4.87
2023-04-28T02:08:51.656Z,4.80
2023-04-28T02:11:19.583Z,5.20
2023-04-28T02:13:47.544Z,5.30
2023-04-28T02:16:17.037Z,5.20
2023-04-28T02:18:44.942Z,5.80
2023-04-28T02:21:13.436Z,5.43
2023-04-28T02:23:41.335Z,5.23
2023-04-28T02:26:09.344Z,5.40
2023-04-28T02:28:37.253Z,5.50
2023-04-28T02:31:06.555Z,5.17
2023-04-28T02:33:36.052Z,5.63
2023-04-28T02:36:05.029Z,5.40
2023-04-28T02:38:32.972Z,5.10
2023-04-28T02:41:01.047Z,5.53
2023-04-28T02:43:28.965Z,5.47
2023-04-28T02:45:57.201Z,5.57
2023-04-28T02:48:25.486Z,5.23
2023-04-28T02:50:54.957Z,5.70
2023-04-28T02:53:23.636Z,5.03
2023-04-28T02:55:51.544Z,5.10
2023-04-28T02:58:19.556Z,5.20
2023-04-28T03:00:47.928Z,5.63
2023-04-28T03:03:16.182Z,5.97
2023-04-28T03:05:44.305Z,5.50
2023-04-28T03:08:13.660Z,5.50
2023-04-28T03:10:41.628Z,5.50
2023-04-28T03:13:09.538Z,5.90
2023-04-28T03:15:37.454Z,5.50
2023-04-28T03:18:05.466Z,5.70
2023-04-28T03:20:33.359Z,5.37
2023-04-28T03:23:02.570Z,5.70
2023-04-28T03:25:31.964Z,5.70
2023-04-28T03:28:01.893Z,5.47
2023-04-28T03:30:29.859Z,6.20
2023-04-28T03:32:57.935Z,5.50
2023-04-28T03:35:25.894Z,5.80
2023-04-28T03:37:53.824Z,5.90
2023-04-28T03:40:22.038Z,5.23
2023-04-28T03:42:51.525Z,6.13
2023-04-28T03:45:19.460Z,6.07
2023-04-28T03:47:47.318Z,5.17
2023-04-28T03:50:15.242Z,5.80
2023-04-28T03:52:43.144Z,5.90
2023-04-28T03:55:11.568Z,5.67
2023-04-28T03:57:39.577Z,5.53
2023-04-28T04:00:10.406Z,5.80
2023-04-28T04:02:38.793Z,5.33
2023-04-28T04:05:07.350Z,5.30
2023-04-28T04:07:35.407Z,5.27
2023-04-28T04:10:04.651Z,5.33
2023-04-28T04:12:32.804Z,5.47
2023-04-28T04:15:00.689Z,5.50
2023-04-28T04:17:30.084Z,5.50
2023-04-28T04:19:58.065Z,5.80
2023-04-28T04:22:26.077Z,5.30
2023-04-28T04:24:53.981Z,6.07
2023-04-28T04:27:21.947Z,5.90
2023-04-28T04:29:49.855Z,5.73
2023-04-28T04:32:17.793Z,5.60
2023-04-28T04:34:47.110Z,5.40
2023-04-28T04:37:15.013Z,5.67
2023-04-28T04:39:42.906Z,5.47
2023-04-28T04:42:24.115Z,4.93
2023-04-28T04:44:53.150Z,5.50
2023-04-28T04:47:20.997Z,5.57
2023-04-28T04:49:51.040Z,5.20
2023-04-28T04:52:19.074Z,5.33
2023-04-28T04:54:47.201Z,5.50
2023-04-28T04:57:15.159Z,5.07
2023-04-28T04:59:43.038Z,5.17
2023-04-28T05:02:11.279Z,5.50
2023-04-28T05:04:39.530Z,5.10
2023-04-28T05:07:08.878Z,5.17
2023-04-28T05:09:36.777Z,5.10
2023-04-28T05:12:05.020Z,5.17
2023-04-28T05:14:32.932Z,4.87
2023-04-28T05:17:00.887Z,5.43
2023-04-28T05:19:28.749Z,4.90
2023-04-28T05:21:56.617Z,5.20
2023-04-28T05:24:26.197Z,4.83
2023-04-28T05:26:54.411Z,4.73
2023-04-28T05:29:22.503Z,4.43
2023-04-28T05:31:50.479Z,4.87
2023-04-28T05:34:18.677Z,4.83
2023-04-28T05:36:46.775Z,4.97
2023-04-28T05:39:14.742Z,5.20
2023-04-28T05:41:44.060Z,5.10
2023-04-28T05:44:12.202Z,4.50
2023-04-28T05:46:40.119Z,5.10
2023-04-28T05:49:08.129Z,4.77
2023-04-28T05:51:36.085Z,5.03
2023-04-28T05:54:04.068Z,6.10
2023-04-28T05:56:32.159Z,5.67
2023-04-28T05:59:04.195Z,5.50
2023-04-28T06:01:32.267Z,4.93
2023-04-28T06:04:00.707Z,5.20
2023-04-28T06:06:29.164Z,4.87
2023-04-28T06:08:57.309Z,5.40
2023-04-28T06:11:25.196Z,5.70
2023-04-28T06:13:53.098Z,5.67
2023-04-28T06:16:23.497Z,5.50
2023-04-28T06:18:51.865Z,5.77
2023-04-28T06:21:21.201Z,5.57
2023-04-28T06:23:49.064Z,5.43
2023-04-28T06:26:18.223Z,6.00
2023-04-28T06:28:46.585Z,5.70
2023-04-28T06:31:14.599Z,5.33
2023-04-28T06:33:44.107Z,6.10
2023-04-28T06:36:13.966Z,5.53
2023-04-28T06:38:43.074Z,5.50
2023-04-28T06:41:11.567Z,6.00
2023-04-28T06:43:39.652Z,5.47
2023-04-28T06:46:08.081Z,5.63
2023-04-28T06:48:36.161Z,5.47
2023-04-28T06:51:05.664Z,5.80
2023-04-28T06:53:33.681Z,6.27
2023-04-28T06:56:02.524Z,6.10
2023-04-28T06:58:30.473Z,5.73
2023-04-28T07:00:58.416Z,5.97
2023-04-28T07:03:27.723Z,5.63
2023-04-28T07:05:55.791Z,6.63
2023-04-28T07:08:25.117Z,5.63
2023-04-28T07:10:52.966Z,5.93
2023-04-28T07:13:20.863Z,6.00
2023-04-28T07:15:48.783Z,6.00
2023-04-28T07:18:16.910Z,6.23
2023-04-28T07:20:44.812Z,6.53
2023-04-28T07:23:12.716Z,6.17
2023-04-28T07:25:42.976Z,6.13
2023-04-28T07:28:11.172Z,6.10
2023-04-28T07:30:39.099Z,6.50
2023-04-28T07:33:07.105Z,6.50
2023-04-28T07:35:35.272Z,5.77
2023-04-28T07:38:03.849Z,6.47
2023-04-28T07:40:31.798Z,5.80
2023-04-28T07:43:01.144Z,6.30
2023-04-28T07:45:28.996Z,6.20
2023-04-28T07:47:56.926Z,6.00
2023-04-28T07:50:25.116Z,5.93
2023-04-28T07:52:53.356Z,6.67
2023-04-28T07:55:21.345Z,6.57
2023-04-28T07:57:49.509Z,6.33
2023-04-28T08:00:19.306Z,6.37
2023-04-28T08:02:47.423Z,6.40
2023-04-28T08:05:15.627Z,7.00
2023-04-28T08:07:44.080Z,6.20
2023-04-28T08:10:12.936Z,6.53
2023-04-28T08:12:41.780Z,6.93
2023-04-28T08:15:11.309Z,6.50
2023-04-28T08:17:40.652Z,6.40
2023-04-28T08:20:10.084Z,7.13
2023-04-28T08:22:38.006Z,7.20
2023-04-28T08:25:06.687Z,6.57
2023-04-28T08:27:37.929Z,6.77
2023-04-28T08:30:06.969Z,7.63
2023-04-28T08:32:35.005Z,6.93
2023-04-28T08:35:04.839Z,7.07
2023-04-28T08:37:32.985Z,7.10
2023-04-28T08:40:07.628Z,7.47
2023-04-28T08:42:37.115Z,7.23
2023-04-28T08:45:06.101Z,7.37
2023-04-28T08:47:36.869Z,7.47
2023-04-28T08:50:08.534Z,7.57
2023-04-28T08:52:37.421Z,7.73
2023-04-28T08:55:09.536Z,7.40
2023-04-28T08:57:41.423Z,7.80
2023-04-28T09:00:10.529Z,7.50
2023-04-28T09:02:42.673Z,7.53
2023-04-28T09:05:13.661Z,7.97
2023-04-28T09:07:42.399Z,8.87
2023-04-28T09:10:21.325Z,8.63
2023-04-28T09:12:52.107Z,8.27
2023-04-28T09:15:33.264Z,7.97
2023-04-28T09:18:02.823Z,8.53
2023-04-28T09:20:33.704Z,8.90
2023-04-28T09:23:16.314Z,8.83
2023-04-28T09:26:08.704Z,9.53
2023-04-28T09:28:37.394Z,9.63
2023-04-28T09:31:05.832Z,8.70
2023-04-28T09:33:33.850Z,9.07
2023-04-28T09:36:03.390Z,9.53
2023-04-28T09:38:31.371Z,9.30
2023-04-28T09:41:00.397Z,9.37
2023-04-28T09:43:30.619Z,9.30
2023-04-28T09:46:00.171Z,9.87
2023-04-28T09:48:29.812Z,10.47
2023-04-28T09:50:59.155Z,9.90
2023-04-28T09:53:28.973Z,10.03
2023-04-28T09:55:58.410Z,11.03
2023-04-28T09:58:28.019Z,9.77
2023-04-28T10:00:58.069Z,10.17
2023-04-28T10:03:29.347Z,11.07
2023-04-28T10:05:58.802Z,10.70
2023-04-28T10:08:29.554Z,11.27
2023-04-28T10:10:58.512Z,10.93
2023-04-28T10:13:26.527Z,11.30
2023-04-28T10:15:55.936Z,11.63
2023-04-28T10:18:25.090Z,11.23
2023-04-28T10:20:58.571Z,11.77
2023-04-28T10:23:54.046Z,11.97
2023-04-28T10:26:23.771Z,10.83
2023-04-28T10:28:53.435Z,11.67
2023-04-28T10:31:22.900Z,11.73
2023-04-28T10:33:51.452Z,10.80
2023-04-28T10:36:50.852Z,11.27
2023-04-28T10:39:20.232Z,10.37
2023-04-28T10:41:49.302Z,10.63
2023-04-28T10:44:42.682Z,11.17
2023-04-28T10:47:11.568Z,11.03
2023-04-28T10:50:11.572Z,11.23
2023-04-28T10:52:52.212Z,10.27
2023-04-28T10:55:36.595Z,11.23
2023-04-28T10:58:33.520Z,10.97
2023-04-28T11:01:26.441Z,10.43
2023-04-28T11:04:00.561Z,10.13
2023-04-28T11:06:32.028Z,10.13
2023-04-28T11:09:02.254Z,10.33
2023-04-28T11:11:33.544Z,9.57
2023-04-28T11:14:33.005Z,9.40
2023-04-28T11:17:02.972Z,8.27
2023-04-28T11:19:33.098Z,8.13
2023-04-28T11:22:03.014Z,8.87
2023-04-28T11:24:32.301Z,8.40
2023-04-28T11:27:02.304Z,7.93
2023-04-28T11:29:35.095Z,8.20
2023-04-28T11:32:03.592Z,7.97
2023-04-28T11:34:31.918Z,7.60
2023-04-28T11:37:00.164Z,7.47
2023-04-28T11:39:29.713Z,6.63
2023-04-28T11:41:58.522Z,6.30
2023-04-28T11:44:30.378Z,6.33
2023-04-28T11:47:01.532Z,6.33
2023-04-28T11:49:31.479Z,6.83
2023-04-28T11:52:05.674Z,6.60
2023-04-28T11:54:33.992Z,6.33
2023-04-28T11:57:04.164Z,5.97
2023-04-28T11:59:35.586Z,6.50
2023-04-28T12:02:04.679Z,6.60
2023-04-28T12:04:36.325Z,6.73
2023-04-28T12:07:06.294Z,7.30
2023-04-28T12:09:35.274Z,8.17
2023-04-28T12:12:04.932Z,9.17
2023-04-28T12:14:54.959Z,8.93
2023-04-28T12:17:27.039Z,10.57
2023-04-28T12:19:55.221Z,11.23
2023-04-28T12:22:23.450Z,10.33
2023-04-28T12:25:05.385Z,9.93
2023-04-28T12:27:33.315Z,11.07
2023-04-28T12:30:02.612Z,10.70
2023-04-28T12:32:41.421Z,9.47
2023-04-28T12:35:10.356Z,8.80
2023-04-28T12:37:39.932Z,7.90
2023-04-28T12:40:09.449Z,7.50
2023-04-28T12:42:37.607Z,7.10
2023-04-28T12:45:08.804Z,6.93
2023-04-28T12:47:37.700Z,5.60
2023-04-28T12:50:07.135Z,5.37
2023-04-28T12:52:35.978Z,5.00
2023-04-28T12:55:04.030Z,4.53
2023-04-28T12:57:32.231Z,4.20
2023-04-28T13:00:00.213Z,3.87
2023-04-28T13:02:29.738Z,4.33
2023-04-28T13:04:58.000Z,3.60
2023-04-28T13:07:25.989Z,3.10
2023-04-28T13:09:53.969Z,3.40
2023-04-28T13:12:21.901Z,3.40
2023-04-28T13:14:49.874Z,3.90
2023-04-28T13:17:18.068Z,4.00
2023-04-28T13:19:47.955Z,3.83
2023-04-28T13:22:16.662Z,3.90
2023-04-28T13:24:44.724Z,4.07
2023-04-28T13:27:12.804Z,4.10
2023-04-28T13:29:41.230Z,3.90
2023-04-28T13:32:09.296Z,4.03
2023-04-28T13:34:38.211Z,3.77
2023-04-28T13:37:07.505Z,2.97
2023-04-28T13:39:35.497Z,3.27
2023-04-28T13:42:03.882Z,3.50
2023-04-28T13:44:31.820Z,3.37
2023-04-28T13:46:59.752Z,3.00
2023-04-28T13:49:28.091Z,2.87
2023-04-28T13:51:56.306Z,3.40
2023-04-28T13:54:25.727Z,2.90
2023-04-28T13:56:53.624Z,3.67
2023-04-28T13:59:21.523Z,3.70
2023-04-28T14:01:49.586Z,3.90
2023-04-28T14:04:17.885Z,4.90
2023-04-28T14:06:45.969Z,5.00
2023-04-28T14:09:14.048Z,5.57
2023-04-28T14:11:43.276Z,5.93
2023-04-28T14:14:11.236Z,7.00
2023-04-28T14:16:39.182Z,6.33
2023-04-28T14:19:07.256Z,6.90
2023-04-28T14:21:35.183Z,6.97
2023-04-28T14:24:03.177Z,7.37
2023-04-28T14:26:31.259Z,7.37
2023-04-28T14:29:01.055Z,7.30
2023-04-28T14:31:29.449Z,7.70
2023-04-28T14:33:57.468Z,8.37
2023-04-28T14:36:25.452Z,8.97
2023-04-28T14:38:53.258Z,8.40
2023-04-28T14:41:21.212Z,9.23
2023-04-28T14:43:49.195Z,9.13
2023-04-28T14:46:22.818Z,9.30
2023-04-28T14:48:51.262Z,9.73
2023-04-28T14:51:19.914Z,9.60
2023-04-28T14:53:48.799Z,8.70
2023-04-28T14:56:18.641Z,10.70
2023-04-28T14:58:47.613Z,9.73
2023-04-28T15:01:16.023Z,9.30
2023-04-28T15:03:45.857Z,9.13
2023-04-28T15:06:14.247Z,9.73
2023-04-28T15:08:42.146Z,9.37
2023-04-28T15:11:10.228Z,8.57
2023-04-28T15:13:38.564Z,9.23
2023-04-28T15:16:08.044Z,8.90
2023-04-28T15:18:36.053Z,8.50
2023-04-28T15:21:05.516Z,8.53
2023-04-28T15:23:33.419Z,8.93
2023-04-28T15:26:01.362Z,8.57
2023-04-28T15:28:29.287Z,8.37
2023-04-28T15:30:57.175Z,8.33
2023-04-28T15:33:25.421Z,7.83
2023-04-28T15:35:53.463Z,7.90
2023-04-28T15:38:22.904Z,8.73
2023-04-28T15:40:50.773Z,8.57
2023-04-28T15:43:18.645Z,8.47
2023-04-28T15:45:47.479Z,8.63
2023-04-28T15:48:16.233Z,9.00
2023-04-28T15:50:44.403Z,8.30
2023-04-28T15:53:12.325Z,7.90
2023-04-28T15:55:41.610Z,7.90
2023-04-28T15:58:10.760Z,7.90
2023-04-28T16:00:40.476Z,7.63
2023-04-28T16:03:08.681Z,8.27
2023-04-28T16:05:36.714Z,7.87
2023-04-28T16:08:04.670Z,7.53
2023-04-28T16:10:32.636Z,7.60
2023-04-28T16:13:01.964Z,8.50
2023-04-28T16:15:29.979Z,9.07
2023-04-28T16:17:58.013Z,10.83
2023-04-28T16:20:25.956Z,9.77
2023-04-28T16:22:54.202Z,9.17
2023-04-28T16:25:22.409Z,10.53
2023-04-28T16:27:50.415Z,10.33
2023-04-28T16:30:20.833Z,11.30
2023-04-28T16:32:48.770Z,11.43
2023-04-28T16:35:16.718Z,10.93
2023-04-28T16:37:44.665Z,11.13
2023-04-28T16:40:13.815Z,11.43
2023-04-28T16:42:42.106Z,12.10
2023-04-28T16:45:11.346Z,11.57
2023-04-28T16:47:42.417Z,12.00
2023-04-28T16:50:11.429Z,12.07
2023-04-28T16:52:39.409Z,11.47
2023-04-28T16:55:08.547Z,10.63
2023-04-28T16:57:36.408Z,10.30
2023-04-28T17:00:04.958Z,11.20
2023-04-28T17:02:33.386Z,11.07
2023-04-28T17:05:02.764Z,10.20
2023-04-28T17:07:31.145Z,10.70
2023-04-28T17:09:59.143Z,9.93
2023-04-28T17:12:27.152Z,9.37
2023-04-28T17:14:55.123Z,9.83
2023-04-28T17:17:23.027Z,9.00
2023-04-28T17:19:51.168Z,9.50
2023-04-28T17:22:20.611Z,9.37
2023-04-28T17:24:48.568Z,8.90
2023-04-28T17:27:16.558Z,9.23
2023-04-28T17:29:44.536Z,9.17
2023-04-28T17:32:12.467Z,9.10
2023-04-28T17:34:41.082Z,9.40
2023-04-28T17:37:09.080Z,9.43
2023-04-28T17:39:38.780Z,8.97
2023-04-28T17:42:07.103Z,8.73
2023-04-28T17:44:35.634Z,9.00
2023-04-28T17:47:03.846Z,8.83
2023-04-28T17:49:31.803Z,9.37
2023-04-28T17:51:59.681Z,8.97
2023-04-28T17:54:27.864Z,9.50
2023-04-28T17:56:57.092Z,9.20
2023-04-28T17:59:25.029Z,9.23
2023-04-28T18:01:56.144Z,10.30
2023-04-28T18:04:24.239Z,9.87
2023-04-28T18:06:52.142Z,10.23
2023-04-28T18:09:20.077Z,10.17
2023-04-28T18:11:48.161Z,10.27
2023-04-28T18:14:18.438Z,10.80
2023-04-28T18:16:46.610Z,11.37
2023-04-28T18:19:14.614Z,10.83
2023-04-28T18:21:42.587Z,11.97
2023-04-28T18:24:10.560Z,12.13
2023-04-28T18:26:38.448Z,12.20
2023-04-28T18:29:06.455Z,13.20
2023-04-28T18:31:35.730Z,14.03
2023-04-28T18:34:05.298Z,15.07
2023-04-28T18:36:34.832Z,17.47
2023-04-28T18:39:03.687Z,17.77
2023-04-28T18:41:33.727Z,18.17
2023-04-28T18:44:02.124Z,15.57
2023-04-28T18:46:30.271Z,15.83
2023-04-28T18:48:59.543Z,14.00
2023-04-28T18:51:27.442Z,15.40
2023-04-28T18:53:55.821Z,15.77
2023-04-28T18:56:24.519Z,15.20
2023-04-28T18:58:52.471Z,15.63
2023-04-28T19:01:20.672Z,15.57
2023-04-28T19:03:49.867Z,15.33
2023-04-28T19:06:19.782Z,15.43
2023-04-28T19:08:47.989Z,16.30
2023-04-28T19:11:16.068Z,16.27
2023-04-28T19:13:44.984Z,16.97
2023-04-28T19:16:12.999Z,16.73
2023-04-28T19:18:42.110Z,15.60
2023-04-28T19:21:12.109Z,17.73
2023-04-28T19:23:41.709Z,17.57
2023-04-28T19:26:10.518Z,18.17
2023-04-28T19:28:38.517Z,19.57
2023-04-28T19:31:06.518Z,17.80
2023-04-28T19:33:34.530Z,19.57
2023-04-28T19:36:03.341Z,18.73
2023-04-28T19:38:31.613Z,18.17
2023-04-28T19:41:04.066Z,18.23
2023-04-28T19:43:31.928Z,16.67
2023-04-28T19:45:59.899Z,16.67
2023-04-28T19:48:27.839Z,18.30
2023-04-28T19:50:56.409Z,15.53
2023-04-28T19:53:24.296Z,16.20
2023-04-28T19:55:52.238Z,16.03
2023-04-28T19:58:22.170Z,15.77
2023-04-28T20:00:50.113Z,16.53
2023-04-28T20:03:18.164Z,15.93
2023-04-28T20:05:46.090Z,15.97
2023-04-28T20:08:14.057Z,16.60
2023-04-28T20:10:42.360Z,16.40
2023-04-28T20:13:10.396Z,14.80
2023-04-28T20:15:40.087Z,14.80
2023-04-28T20:18:08.097Z,14.53
2023-04-28T20:20:36.050Z,14.57
2023-04-28T20:23:03.973Z,14.40
2023-04-28T20:25:31.994Z,14.40
2023-04-28T20:27:59.934Z,15.20
2023-04-28T20:30:28.250Z,14.40
2023-04-28T20:32:57.597Z,14.20
2023-04-28T20:35:25.557Z,13.03
2023-04-28T20:37:53.896Z,12.73
2023-04-28T20:40:22.862Z,12.93
2023-04-28T20:42:50.761Z,13.00
2023-04-28T20:45:19.900Z,14.20
2023-04-28T20:47:47.879Z,13.27
2023-04-28T20:50:17.352Z,12.60
2023-04-28T20:52:45.648Z,9.87
2023-04-28T20:55:13.601Z,8.83
2023-04-28T20:57:41.510Z,9.53
2023-04-28T21:00:11.339Z,9.43
2023-04-28T21:02:39.478Z,9.33
2023-04-28T21:05:08.402Z,8.70
2023-04-28T21:07:37.654Z,8.87
2023-04-28T21:10:06.345Z,7.97
2023-04-28T21:12:34.235Z,8.57
2023-04-28T21:15:02.351Z,8.27
2023-04-28T21:17:30.355Z,8.60
2023-04-28T21:19:58.291Z,8.50
2023-04-28T21:22:27.697Z,9.67
2023-04-28T21:24:57.338Z,9.53
2023-04-28T21:27:25.578Z,9.03
2023-04-28T21:29:53.720Z,8.93
2023-04-28T21:32:21.775Z,9.43
2023-04-28T21:34:49.841Z,9.63
2023-04-28T21:37:18.176Z,9.73
2023-04-28T21:39:46.056Z,10.43
2023-04-28T21:42:15.397Z,10.30
2023-04-28T21:44:43.357Z,10.30
2023-04-28T21:47:11.319Z,10.50
2023-04-28T21:49:39.904Z,11.27
2023-04-28T21:52:07.767Z,10.53
2023-04-28T21:54:35.777Z,11.23
2023-04-28T21:57:03.718Z,11.20
2023-04-28T21:59:33.295Z,11.13
2023-04-28T22:02:02.021Z,11.57
2023-04-28T22:04:30.675Z,10.80
2023-04-28T22:06:58.678Z,11.00
2023-04-28T22:09:27.272Z,11.50
2023-04-28T22:11:55.192Z,12.17
2023-04-28T22:14:39.380Z,12.20
2023-04-28T22:17:10.586Z,12.33
2023-04-28T22:19:38.503Z,11.97
2023-04-28T22:22:06.957Z,12.63
2023-04-28T22:24:35.116Z,12.93
2023-04-28T22:27:03.269Z,13.67
2023-04-28T22:29:31.230Z,13.77
2023-04-28T22:31:59.353Z,14.77
2023-04-28T22:34:28.866Z,13.40
2023-04-28T22:36:56.793Z,14.27
2023-04-28T22:39:26.776Z,13.70
2023-04-28T22:41:54.785Z,13.93
2023-04-28T22:44:22.728Z,14.63
2023-04-28T22:46:50.736Z,14.17
2023-04-28T22:49:24.355Z,14.13
2023-04-28T22:51:53.616Z,13.87
2023-04-28T22:54:21.643Z,13.80
2023-04-28T22:56:51.866Z,14.83
2023-04-28T22:59:22.122Z,13.90
2023-04-28T23:01:50.229Z,15.30
2023-04-28T23:04:20.281Z,14.90
2023-04-28T23:06:48.443Z,15.27
2023-04-28T23:09:17.753Z,15.37
2023-04-28T23:11:45.676Z,15.97
2023-04-28T23:14:13.586Z,15.33
2023-04-28T23:16:42.051Z,15.33
2023-04-28T23:19:10.009Z,15.20
2023-04-28T23:21:37.996Z,14.17
2023-04-28T23:24:07.353Z,13.30
2023-04-28T23:26:36.682Z,14.17
2023-04-28T23:29:04.666Z,13.10
2023-04-28T23:31:33.273Z,12.97
2023-04-28T23:34:02.263Z,13.30
2023-04-28T23:36:31.386Z,14.07
2023-04-28T23:38:59.220Z,13.63
2023-04-28T23:41:27.998Z,13.07
2023-04-28T23:43:57.317Z,12.50
2023-04-28T23:46:25.422Z,12.33
2023-04-28T23:48:53.651Z,14.43
2023-04-28T23:51:21.554Z,11.93
2023-04-28T23:53:49.580Z,11.57
2023-04-28T23:56:17.624Z,12.33
2023-04-28T23:58:45.594Z,10.57
